Time;durP1;ratioP1;P1;durP2;ratioP2;P2;SDS_P1;SDS_P2;PMS_P1;PMS_P2;Temp;Humidity;BMP_temperature;BMP_pressure;BME280_temperature;BME280_humidity;BME280_pressure;Samples;Min_cycle;Max_cycle;Signal;HPM_P1;HPM_P2
2021/10/02 00:45:18;;;;;;;;;8.50;8.25;;;;;;;;5116370;28;8795;-83
2021/10/02 00:47:43;;;;;;;;;9.00;7.33;;;;;;;;5116448;28;8896;-83
2021/10/02 00:50:09;;;;;;;;;10.67;10.00;;;;;;;;5116189;28;9558;-83
2021/10/02 00:52:34;;;;;;;;;10.00;9.67;;;;;;;;5116416;28;8802;-83
2021/10/02 00:54:59;;;;;;;;;7.00;7.00;;;;;;;;5116500;28;8787;-83
2021/10/02 00:57:24;;;;;;;;;9.33;9.33;;;;;;;;5116334;28;8815;-83
2021/10/02 00:59:50;;;;;;;;;7.67;7.67;;;;;;;;5116323;28;8791;-83
2021/10/02 01:02:19;;;;;;;;;8.33;8.33;;;;;;;;5131912;27;8904;-83
2021/10/02 01:04:50;;;;;;;;;8.50;8.50;;;;;;;;5116035;28;8723;-83
2021/10/02 01:07:30;;;;;;;;;8.00;8.00;;;;;;;;5116149;28;8838;-83
2021/10/02 01:09:56;;;;;;;;;8.25;8.25;;;;;;;;5116447;28;8825;-83
2021/10/02 01:12:21;;;;;;;;;9.00;9.00;;;;;;;;5116274;28;8817;-83
2021/10/02 01:14:50;;;;;;;;;8.00;8.00;;;;;;;;5115013;28;8927;-83
2021/10/02 01:17:21;;;;;;;;;8.25;7.75;;;;;;;;5115961;28;8823;-83
2021/10/02 01:19:53;;;;;;;;;12.00;10.50;;;;;;;;5115965;28;8791;-84
2021/10/02 01:22:32;;;;;;;;;10.00;9.00;;;;;;;;5115981;28;8802;-83
2021/10/02 01:25:10;;;;;;;;;7.75;7.75;;;;;;;;5117973;28;8751;-84
2021/10/02 01:27:50;;;;;;;;;10.00;10.00;;;;;;;;5119391;28;9744;-84
2021/10/02 01:30:21;;;;;;;;;8.75;8.75;;;;;;;;5134619;27;8806;-83
2021/10/02 01:33:03;;;;;;;;;8.25;8.25;;;;;;;;5160614;27;8778;-83
2021/10/02 01:35:52;;;;;;;;;7.75;6.00;;;;;;;;5160505;27;8798;-84
2021/10/02 01:49:17;;;;;;;;;11.75;9.00;;;;;;;;5160402;27;8782;-85
2021/10/02 01:51:43;;;;;;;;;9.75;8.75;;;;;;;;5158832;27;8802;-84
2021/10/02 01:54:10;;;;;;;;;8.00;8.00;;;;;;;;5159064;27;8794;-84
2021/10/02 01:56:35;;;;;;;;;10.75;10.75;;;;;;;;5160437;27;8821;-84
2021/10/02 01:59:01;;;;;;;;;10.67;9.33;;;;;;;;5158999;27;8825;-84
2021/10/02 02:01:26;;;;;;;;;11.33;9.67;;;;;;;;5160259;27;8805;-84
2021/10/02 02:03:55;;;;;;;;;8.67;7.67;;;;;;;;5158822;27;8882;-84
2021/10/02 02:06:21;;;;;;;;;10.25;10.25;;;;;;;;5159877;27;8797;-84
2021/10/02 02:08:46;;;;;;;;;10.25;10.25;;;;;;;;5160227;27;8778;-84
2021/10/02 02:11:12;;;;;;;;;10.33;10.00;;;;;;;;5158827;27;8834;-84
2021/10/02 02:13:38;;;;;;;;;11.33;11.00;;;;;;;;5160368;27;8770;-84
2021/10/02 02:16:04;;;;;;;;;8.50;8.50;;;;;;;;5160133;27;8778;-84
2021/10/02 02:18:30;;;;;;;;;9.25;9.25;;;;;;;;5160179;27;8826;-84
2021/10/02 02:21:09;;;;;;;;;8.00;8.00;;;;;;;;5159927;27;8959;-84
2021/10/02 02:23:35;;;;;;;;;10.75;10.75;;;;;;;;5160025;27;8750;-84
2021/10/02 02:26:04;;;;;;;;;10.00;9.00;;;;;;;;5160006;27;9597;-85
2021/10/02 02:28:34;;;;;;;;;8.75;8.50;;;;;;;;5159750;27;11426;-84
2021/10/02 02:31:00;;;;;;;;;8.00;8.00;;;;;;;;5145168;27;8880;-84
2021/10/02 02:33:25;;;;;;;;;8.67;8.00;;;;;;;;5139348;27;8776;-85
2021/10/02 02:35:52;;;;;;;;;8.33;8.33;;;;;;;;5139029;27;8853;-84
2021/10/02 02:38:17;;;;;;;;;9.25;8.75;;;;;;;;5138881;27;8796;-84
2021/10/02 02:40:42;;;;;;;;;5.67;5.67;;;;;;;;5139131;27;8839;-84
2021/10/02 02:43:09;;;;;;;;;10.00;10.00;;;;;;;;5137762;27;8800;-84
2021/10/02 02:45:35;;;;;;;;;9.00;7.75;;;;;;;;5138328;27;8796;-85
2021/10/02 02:48:02;;;;;;;;;8.00;8.00;;;;;;;;5139680;27;8827;-84
2021/10/02 02:50:32;;;;;;;;;10.50;9.25;;;;;;;;5140357;27;8772;-84
2021/10/02 02:53:01;;;;;;;;;8.00;7.25;;;;;;;;5140489;27;8780;-84
2021/10/02 02:55:28;;;;;;;;;10.75;8.00;;;;;;;;5137641;27;8765;-84
2021/10/02 02:57:55;;;;;;;;;9.25;9.25;;;;;;;;5139138;27;8808;-84
2021/10/02 03:00:21;;;;;;;;;10.25;8.00;;;;;;;;5139401;27;8791;-84
2021/10/02 03:02:52;;;;;;;;;10.25;9.25;;;;;;;;5139032;27;8769;-85
2021/10/02 03:05:19;;;;;;;;;9.50;9.50;;;;;;;;5139075;27;9793;-84
2021/10/02 03:07:58;;;;;;;;;8.25;8.25;;;;;;;;5139619;27;8776;-84
2021/10/02 03:10:24;;;;;;;;;9.00;9.00;;;;;;;;5138664;27;8837;-84
2021/10/02 03:12:52;;;;;;;;;11.00;10.33;;;;;;;;5138577;27;8780;-84
2021/10/02 03:15:17;;;;;;;;;10.50;10.00;;;;;;;;5138929;27;8773;-84
2021/10/02 03:17:44;;;;;;;;;8.67;8.67;;;;;;;;5139222;27;8900;-84
2021/10/02 03:20:11;;;;;;;;;11.00;10.00;;;;;;;;5139036;27;8779;-84
2021/10/02 03:22:36;;;;;;;;;10.00;10.00;;;;;;;;5137741;27;8788;-84
2021/10/02 03:25:02;;;;;;;;;10.00;10.00;;;;;;;;5138742;27;8796;-84
2021/10/02 03:27:28;;;;;;;;;10.75;10.75;;;;;;;;5138343;27;8765;-84
2021/10/02 03:29:54;;;;;;;;;11.00;11.00;;;;;;;;5142037;27;9615;-84
2021/10/02 03:32:20;;;;;;;;;11.00;10.33;;;;;;;;5157707;27;8809;-84
2021/10/02 03:34:45;;;;;;;;;11.50;11.00;;;;;;;;5159013;27;8770;-83
2021/10/02 03:37:11;;;;;;;;;11.67;11.67;;;;;;;;5158778;27;8882;-83
2021/10/02 03:39:36;;;;;;;;;11.00;11.00;;;;;;;;5158897;27;8816;-84
2021/10/02 03:42:04;;;;;;;;;13.00;12.00;;;;;;;;5159184;27;8791;-84
2021/10/02 03:44:29;;;;;;;;;9.00;8.25;;;;;;;;5157826;27;8878;-83
2021/10/02 03:46:55;;;;;;;;;10.00;10.00;;;;;;;;5159269;27;8786;-84
2021/10/02 03:49:20;;;;;;;;;9.67;9.33;;;;;;;;5159006;27;8773;-83
2021/10/02 03:51:48;;;;;;;;;14.67;12.33;;;;;;;;5159136;27;8774;-83
2021/10/02 03:54:13;;;;;;;;;10.25;10.25;;;;;;;;5158952;27;8801;-83
2021/10/02 03:56:38;;;;;;;;;9.67;9.67;;;;;;;;5157171;27;8801;-83
2021/10/02 03:59:03;;;;;;;;;8.67;8.33;;;;;;;;5159268;27;8782;-84
2021/10/02 04:01:29;;;;;;;;;12.00;10.00;;;;;;;;5158447;27;8814;-83
2021/10/02 04:03:54;;;;;;;;;10.33;10.33;;;;;;;;5158718;27;8782;-83
2021/10/02 04:06:19;;;;;;;;;12.00;10.67;;;;;;;;5156779;27;8890;-83
2021/10/02 04:08:45;;;;;;;;;11.00;10.67;;;;;;;;5156915;27;8798;-84
2021/10/02 04:11:10;;;;;;;;;14.00;13.67;;;;;;;;5159107;27;8912;-83
2021/10/02 04:13:35;;;;;;;;;11.00;11.00;;;;;;;;5158440;27;8790;-83
2021/10/02 04:16:00;;;;;;;;;12.33;11.00;;;;;;;;5158478;27;8889;-83
2021/10/02 04:18:25;;;;;;;;;9.67;9.67;;;;;;;;5158131;27;8834;-83
2021/10/02 04:20:51;;;;;;;;;11.00;11.00;;;;;;;;5158232;27;8816;-83
2021/10/02 04:23:16;;;;;;;;;11.00;11.00;;;;;;;;5158195;27;8894;-83
2021/10/02 04:25:41;;;;;;;;;12.67;12.00;;;;;;;;5158900;27;8789;-83
2021/10/02 04:28:06;;;;;;;;;11.67;11.33;;;;;;;;5157289;27;8928;-83
2021/10/02 04:30:32;;;;;;;;;10.67;9.67;;;;;;;;5147342;27;8801;-83
2021/10/02 04:32:57;;;;;;;;;11.00;9.33;;;;;;;;5137281;27;8804;-83
2021/10/02 04:35:22;;;;;;;;;11.33;10.67;;;;;;;;5137174;27;8831;-83
2021/10/02 04:37:48;;;;;;;;;10.67;10.67;;;;;;;;5137011;27;8850;-83
2021/10/02 04:40:13;;;;;;;;;14.00;13.00;;;;;;;;5137184;27;8816;-83
2021/10/02 04:42:38;;;;;;;;;10.00;10.00;;;;;;;;5137076;27;11208;-83
2021/10/02 04:45:04;;;;;;;;;11.67;11.00;;;;;;;;5137593;27;8768;-83
2021/10/02 04:47:29;;;;;;;;;10.33;10.33;;;;;;;;5135742;27;8915;-83
2021/10/02 04:49:54;;;;;;;;;12.67;11.67;;;;;;;;5136896;27;8908;-83
2021/10/02 04:52:20;;;;;;;;;13.67;13.67;;;;;;;;5137042;27;8776;-83
2021/10/02 04:54:45;;;;;;;;;13.67;10.67;;;;;;;;5137199;27;8796;-83
2021/10/02 04:57:10;;;;;;;;;12.67;9.33;;;;;;;;5137098;27;8804;-82
2021/10/02 04:59:35;;;;;;;;;11.00;10.00;;;;;;;;5136991;27;8811;-82
2021/10/02 05:02:01;;;;;;;;;10.67;8.33;;;;;;;;5139815;27;8904;-83
2021/10/02 05:04:26;;;;;;;;;10.00;10.00;;;;;;;;5141180;27;9596;-83
2021/10/02 05:06:51;;;;;;;;;10.00;9.67;;;;;;;;5140476;27;8827;-82
2021/10/02 05:09:16;;;;;;;;;11.33;11.33;;;;;;;;5140710;27;8781;-83
2021/10/02 05:11:42;;;;;;;;;9.00;9.00;;;;;;;;5139350;27;8792;-83
2021/10/02 05:14:07;;;;;;;;;11.00;9.67;;;;;;;;5140426;27;9547;-83
2021/10/02 05:16:32;;;;;;;;;9.00;9.00;;;;;;;;5139288;27;8828;-84
2021/10/02 05:18:57;;;;;;;;;12.00;11.67;;;;;;;;5140378;27;8789;-83
2021/10/02 05:21:22;;;;;;;;;11.00;10.00;;;;;;;;5138643;27;9533;-82
2021/10/02 05:23:48;;;;;;;;;9.00;8.67;;;;;;;;5138943;27;8838;-82
2021/10/02 05:26:13;;;;;;;;;11.33;11.33;;;;;;;;5140407;27;8780;-85
2021/10/02 05:28:38;;;;;;;;;9.67;9.67;;;;;;;;5140186;27;8900;-85
2021/10/02 05:31:03;;;;;;;;;10.00;10.00;;;;;;;;5156174;27;8849;-85
2021/10/02 05:33:29;;;;;;;;;20.67;20.00;;;;;;;;5152031;27;8816;-86
2021/10/02 05:35:54;;;;;;;;;10.67;10.00;;;;;;;;5138134;27;8816;-86
2021/10/02 05:38:20;;;;;;;;;12.33;11.67;;;;;;;;5139560;27;8851;-85
2021/10/02 05:40:45;;;;;;;;;19.75;16.25;;;;;;;;5140155;27;8744;-85
2021/10/02 05:43:11;;;;;;;;;18.00;16.67;;;;;;;;5140383;27;8780;-85
2021/10/02 05:45:36;;;;;;;;;12.00;12.00;;;;;;;;5140091;27;8804;-86
2021/10/02 05:48:01;;;;;;;;;13.33;13.33;;;;;;;;5139689;27;8827;-86
2021/10/02 05:50:26;;;;;;;;;12.00;12.00;;;;;;;;5139946;27;8812;-85
2021/10/02 05:52:52;;;;;;;;;13.00;12.67;;;;;;;;5139970;27;8859;-86
2021/10/02 05:55:17;;;;;;;;;9.33;9.33;;;;;;;;5139951;27;8808;-85
2021/10/02 05:57:42;;;;;;;;;12.00;12.00;;;;;;;;5139444;27;8812;-85
2021/10/02 06:00:09;;;;;;;;;13.33;12.67;;;;;;;;5138242;27;8812;-88
2021/10/02 06:02:35;;;;;;;;;10.25;10.25;;;;;;;;5140041;27;8798;-85
2021/10/02 06:05:00;;;;;;;;;13.00;13.00;;;;;;;;5141094;27;8892;-85
2021/10/02 06:07:25;;;;;;;;;11.67;11.67;;;;;;;;5123272;27;8808;-85
2021/10/02 06:09:51;;;;;;;;;13.33;13.00;;;;;;;;5140444;27;8824;-84
2021/10/02 06:12:17;;;;;;;;;14.00;13.00;;;;;;;;5143942;27;8812;-83
2021/10/02 06:14:42;;;;;;;;;14.00;13.00;;;;;;;;5141767;27;8838;-81
2021/10/02 06:17:08;;;;;;;;;12.00;11.00;;;;;;;;5137619;27;8845;-80
2021/10/02 06:19:33;;;;;;;;;11.67;11.67;;;;;;;;5138240;27;8847;-80
2021/10/02 06:21:59;;;;;;;;;5.33;5.00;;;;;;;;5137642;27;8808;-80
2021/10/02 06:24:25;;;;;;;;;11.75;10.75;;;;;;;;5139050;27;8853;-80
2021/10/02 06:26:50;;;;;;;;;10.67;10.67;;;;;;;;5138888;27;8785;-81
2021/10/02 06:29:15;;;;;;;;;8.00;8.00;;;;;;;;5113627;28;8823;-83
2021/10/02 06:31:40;;;;;;;;;51.75;42.25;;;;;;;;5138368;27;8812;-84
2021/10/02 06:34:06;;;;;;;;;18.00;15.00;;;;;;;;5137993;27;8808;-80
2021/10/02 06:36:32;;;;;;;;;9.00;9.00;;;;;;;;5137339;27;8854;-80
2021/10/02 06:38:59;;;;;;;;;12.00;9.00;;;;;;;;5135886;27;8808;-81
2021/10/02 06:41:24;;;;;;;;;5.75;5.50;;;;;;;;5127941;27;8787;-82
2021/10/02 06:43:50;;;;;;;;;7.00;7.00;;;;;;;;5130122;27;8788;-81
2021/10/02 06:46:15;;;;;;;;;8.00;8.00;;;;;;;;5125931;27;8799;-81
2021/10/02 06:48:41;;;;;;;;;7.67;7.67;;;;;;;;5131098;27;9516;-81
2021/10/02 06:51:06;;;;;;;;;6.00;6.00;;;;;;;;5133323;27;8853;-79
2021/10/02 06:53:32;;;;;;;;;5.67;5.67;;;;;;;;5139448;27;8792;-81
2021/10/02 06:55:57;;;;;;;;;6.00;6.00;;;;;;;;5139138;27;8827;-82
2021/10/02 06:58:22;;;;;;;;;5.00;5.00;;;;;;;;5137348;27;8815;-85
2021/10/02 07:00:47;;;;;;;;;5.00;5.00;;;;;;;;5137280;27;8807;-82
2021/10/02 07:03:13;;;;;;;;;4.33;4.33;;;;;;;;5138803;27;8776;-83
2021/10/02 07:05:38;;;;;;;;;5.67;5.00;;;;;;;;5138442;27;8788;-84
2021/10/02 07:08:04;;;;;;;;;7.00;4.67;;;;;;;;5129917;27;8851;-82
2021/10/02 07:10:29;;;;;;;;;5.50;5.00;;;;;;;;5128842;27;8804;-82
2021/10/02 07:12:55;;;;;;;;;4.33;4.33;;;;;;;;5127558;27;8806;-81
2021/10/02 07:15:20;;;;;;;;;5.67;4.67;;;;;;;;5127460;27;8789;-81
2021/10/02 07:17:46;;;;;;;;;3.00;3.00;;;;;;;;5128129;27;9591;-81
2021/10/02 07:20:12;;;;;;;;;4.67;3.67;;;;;;;;5126210;27;8787;-82
2021/10/02 07:22:38;;;;;;;;;3.00;3.00;;;;;;;;5126946;27;8830;-83
2021/10/02 07:25:09;;;;;;;;;2.25;2.25;;;;;;;;5136103;27;8792;-82
2021/10/02 07:27:34;;;;;;;;;2.50;2.00;;;;;;;;5137403;27;8784;-80
2021/10/02 07:29:59;;;;;;;;;2.00;2.00;;;;;;;;5144602;27;8809;-82
2021/10/02 07:32:25;;;;;;;;;3.00;3.00;;;;;;;;5159394;27;9551;-82
2021/10/02 07:34:51;;;;;;;;;4.00;4.00;;;;;;;;5159680;27;8766;-82
2021/10/02 07:37:16;;;;;;;;;5.00;4.00;;;;;;;;5159114;27;8794;-80
2021/10/02 07:39:42;;;;;;;;;4.00;4.00;;;;;;;;5159063;27;8886;-80
2021/10/02 07:42:09;;;;;;;;;4.00;4.00;;;;;;;;5143252;27;8893;-80
2021/10/02 07:44:35;;;;;;;;;3.00;3.00;;;;;;;;5136525;27;9455;-80
2021/10/02 07:47:02;;;;;;;;;4.00;4.00;;;;;;;;5137747;27;8775;-81
2021/10/02 07:49:32;;;;;;;;;5.25;4.75;;;;;;;;5131842;27;8764;-81
2021/10/02 07:51:57;;;;;;;;;1.00;1.00;;;;;;;;5139190;27;8740;-82
2021/10/02 07:54:24;;;;;;;;;5.00;5.00;;;;;;;;5140489;27;9557;-81
2021/10/02 07:56:49;;;;;;;;;5.00;5.00;;;;;;;;5139060;27;8789;-82
2021/10/02 07:59:15;;;;;;;;;5.33;5.33;;;;;;;;5138661;27;8810;-81
2021/10/02 08:01:41;;;;;;;;;7.00;7.00;;;;;;;;5136632;27;9246;-81
2021/10/02 08:04:07;;;;;;;;;4.00;3.67;;;;;;;;5137543;27;8772;-80
2021/10/02 08:06:33;;;;;;;;;5.00;4.67;;;;;;;;5137455;27;8772;-81
2021/10/02 08:08:58;;;;;;;;;5.33;3.00;;;;;;;;5137836;27;8800;-81
2021/10/02 08:11:24;;;;;;;;;4.33;4.33;;;;;;;;5137719;27;8792;-80
2021/10/02 08:13:49;;;;;;;;;3.00;3.00;;;;;;;;5137506;27;8843;-80
2021/10/02 08:16:16;;;;;;;;;6.00;4.67;;;;;;;;5137558;27;8785;-80
2021/10/02 08:18:43;;;;;;;;;6.25;3.75;;;;;;;;5135757;27;8792;-81
2021/10/02 08:21:08;;;;;;;;;3.25;3.00;;;;;;;;5137262;27;9770;-81
2021/10/02 08:23:35;;;;;;;;;4.67;4.67;;;;;;;;5122715;27;8923;-82
2021/10/02 08:26:01;;;;;;;;;5.25;4.25;;;;;;;;5115788;27;8763;-83
2021/10/02 08:28:26;;;;;;;;;2.33;2.33;;;;;;;;5122020;27;8808;-82
2021/10/02 08:30:52;;;;;;;;;4.00;4.00;;;;;;;;5129641;27;8800;-82
2021/10/02 08:33:17;;;;;;;;;2.67;2.67;;;;;;;;5128252;27;8819;-82
2021/10/02 08:35:43;;;;;;;;;4.67;4.00;;;;;;;;5128945;27;8875;-79
2021/10/02 08:38:09;;;;;;;;;5.33;4.67;;;;;;;;5136233;27;8808;-80
2021/10/02 08:40:34;;;;;;;;;4.00;3.00;;;;;;;;5141058;27;8799;-80
2021/10/02 08:43:00;;;;;;;;;4.67;4.67;;;;;;;;5133450;27;8797;-80
2021/10/02 08:45:29;;;;;;;;;6.00;4.00;;;;;;;;5127979;27;8866;-83
2021/10/02 08:47:56;;;;;;;;;5.25;4.50;;;;;;;;5124156;27;8803;-83
2021/10/02 08:50:21;;;;;;;;;3.25;3.25;;;;;;;;5119894;27;8763;-82
2021/10/02 08:52:47;;;;;;;;;4.00;4.00;;;;;;;;5119958;27;8775;-83
2021/10/02 08:55:13;;;;;;;;;3.33;3.33;;;;;;;;5118575;28;8815;-83
2021/10/02 08:57:38;;;;;;;;;6.67;6.00;;;;;;;;5118487;27;8814;-82
2021/10/02 09:00:06;;;;;;;;;5.00;4.67;;;;;;;;5119991;27;8823;-79
2021/10/02 09:02:31;;;;;;;;;6.00;6.00;;;;;;;;5119784;28;8771;-80
2021/10/02 09:04:58;;;;;;;;;5.00;5.00;;;;;;;;5118449;28;8821;-80
2021/10/02 09:07:23;;;;;;;;;6.50;6.00;;;;;;;;5118323;28;8779;-79
2021/10/02 09:09:49;;;;;;;;;8.00;7.33;;;;;;;;5119797;27;8787;-79
2021/10/02 09:12:17;;;;;;;;;8.33;7.00;;;;;;;;5118468;28;8829;-80
2021/10/02 09:14:42;;;;;;;;;7.00;6.25;;;;;;;;5118411;28;8775;-80
2021/10/02 09:17:08;;;;;;;;;6.67;4.33;;;;;;;;5129966;27;8823;-81
2021/10/02 09:19:33;;;;;;;;;6.67;5.00;;;;;;;;5140211;27;8781;-79
2021/10/02 09:22:01;;;;;;;;;5.00;5.00;;;;;;;;5140198;27;9536;-80
2021/10/02 09:24:32;;;;;;;;;6.25;4.50;;;;;;;;5139052;27;8740;-81
2021/10/02 09:26:57;;;;;;;;;5.00;4.00;;;;;;;;5140325;27;9639;-80
2021/10/02 09:29:37;;;;;;;;;2.67;2.00;;;;;;;;5139253;27;8893;-83
2021/10/02 09:32:03;;;;;;;;;4.00;4.00;;;;;;;;5160828;27;8782;-82
2021/10/02 09:34:28;;;;;;;;;5.25;3.00;;;;;;;;5160761;27;8850;-83
2021/10/02 09:36:53;;;;;;;;;5.00;3.00;;;;;;;;5159090;27;8813;-82
2021/10/02 09:39:19;;;;;;;;;6.00;4.33;;;;;;;;5160844;27;8793;-82
2021/10/02 09:41:52;;;;;;;;;5.00;3.00;;;;;;;;5160785;27;8847;-83
2021/10/02 09:44:24;;;;;;;;;5.00;4.75;;;;;;;;5160646;27;9668;-83
2021/10/02 09:46:50;;;;;;;;;2.25;2.25;;;;;;;;5160272;27;8754;-81
2021/10/02 09:49:15;;;;;;;;;4.00;4.00;;;;;;;;5158953;27;8806;-80
2021/10/02 09:51:41;;;;;;;;;4.67;3.67;;;;;;;;5159259;27;8794;-80
2021/10/02 09:54:07;;;;;;;;;5.75;4.00;;;;;;;;5160722;27;8797;-81
2021/10/02 09:56:32;;;;;;;;;6.00;4.00;;;;;;;;5159384;27;8785;-80
2021/10/02 09:58:58;;;;;;;;;6.00;5.67;;;;;;;;5160472;27;8802;-80
2021/10/02 10:01:27;;;;;;;;;2.25;2.25;;;;;;;;5160485;27;8774;-81
2021/10/02 10:03:53;;;;;;;;;4.50;4.50;;;;;;;;5160532;27;8780;-80
2021/10/02 10:06:22;;;;;;;;;1.00;1.00;;;;;;;;5127103;27;8803;-80
2021/10/02 10:09:02;;;;;;;;;3.25;3.25;;;;;;;;5119070;27;8720;-79
2021/10/02 10:11:39;;;;;;;;;3.00;3.00;;;;;;;;5117625;28;8794;-83
2021/10/02 10:14:04;;;;;;;;;2.25;2.25;;;;;;;;5117481;28;8779;-82
2021/10/02 10:16:36;;;;;;;;;4.67;4.67;;;;;;;;5118589;27;8889;-83
2021/10/02 10:19:15;;;;;;;;;3.00;3.00;;;;;;;;5117330;28;8727;-81
2021/10/02 10:21:40;;;;;;;;;5.50;2.75;;;;;;;;5118732;27;8751;-84
2021/10/02 10:24:06;;;;;;;;;2.33;2.33;;;;;;;;5118693;27;8787;-82
2021/10/02 10:26:31;;;;;;;;;2.67;2.67;;;;;;;;5117195;28;8821;-78
2021/10/02 10:29:01;;;;;;;;;3.67;3.67;;;;;;;;5118671;27;9669;-78
2021/10/02 10:31:26;;;;;;;;;3.25;3.00;;;;;;;;5153927;27;8786;-78
2021/10/02 10:33:54;;;;;;;;;3.67;3.67;;;;;;;;5160052;27;8814;-79
2021/10/02 10:36:21;;;;;;;;;4.00;3.00;;;;;;;;5159490;27;8746;-78
2021/10/02 10:38:46;;;;;;;;;5.75;3.75;;;;;;;;5158335;27;8810;-79
2021/10/02 10:41:13;;;;;;;;;2.67;2.67;;;;;;;;5159991;27;8770;-81
2021/10/02 10:43:39;;;;;;;;;3.75;3.75;;;;;;;;5159827;27;8950;-80
2021/10/02 10:46:05;;;;;;;;;3.00;3.00;;;;;;;;5158481;27;8798;-79
2021/10/02 10:48:31;;;;;;;;;4.75;2.00;;;;;;;;5159558;27;8789;-80
2021/10/02 10:51:01;;;;;;;;;3.33;2.00;;;;;;;;5159583;27;8758;-79
2021/10/02 10:53:33;;;;;;;;;3.00;2.75;;;;;;;;5145052;27;8855;-79
2021/10/02 10:55:58;;;;;;;;;1.75;1.75;;;;;;;;5132528;27;8780;-79
2021/10/02 10:58:32;;;;;;;;;4.00;2.33;;;;;;;;5127489;27;8820;-81
2021/10/02 11:00:59;;;;;;;;;3.00;2.00;;;;;;;;5124419;27;8776;-83
2021/10/02 11:03:35;;;;;;;;;2.00;1.00;;;;;;;;5127248;27;8880;-85
2021/10/02 11:06:00;;;;;;;;;2.00;2.00;;;;;;;;5127364;27;8775;-83
2021/10/02 11:08:46;;;;;;;;;4.33;3.67;;;;;;;;5131864;27;8827;-84
2021/10/02 11:11:11;;;;;;;;;2.00;2.00;;;;;;;;5137171;27;9710;-85
2021/10/02 11:13:36;;;;;;;;;3.33;3.00;;;;;;;;5138631;27;8870;-80
2021/10/02 11:16:24;;;;;;;;;3.00;2.33;;;;;;;;5138505;27;8853;-80
2021/10/02 11:18:50;;;;;;;;;1.25;1.25;;;;;;;;5133529;27;8805;-81
2021/10/02 11:21:16;;;;;;;;;2.67;2.67;;;;;;;;5138041;27;8855;-81
2021/10/02 11:23:54;;;;;;;;;1.25;1.25;;;;;;;;5137269;27;8772;-88
2021/10/02 11:26:37;;;;;;;;;4.75;3.25;;;;;;;;5138321;27;8791;-84
2021/10/02 11:29:03;;;;;;;;;1.00;1.00;;;;;;;;5137237;27;8865;-84
2021/10/02 11:31:29;;;;;;;;;2.33;2.33;;;;;;;;5155925;27;8834;-85
2021/10/02 11:33:56;;;;;;;;;5.00;3.75;;;;;;;;5159626;27;8758;-85
2021/10/02 11:36:30;;;;;;;;;2.00;2.00;;;;;;;;5157315;27;8939;-82
2021/10/02 11:39:11;;;;;;;;;2.00;2.00;;;;;;;;5143204;27;8812;-84
2021/10/02 11:41:39;;;;;;;;;2.75;2.75;;;;;;;;5136925;27;8786;-83
2021/10/02 11:44:04;;;;;;;;;3.50;3.00;;;;;;;;5139288;27;8713;-83
2021/10/02 11:46:29;;;;;;;;;3.00;3.00;;;;;;;;5138195;27;8883;-83
2021/10/02 11:49:11;;;;;;;;;2.33;2.33;;;;;;;;5136494;27;9198;-81
2021/10/02 11:51:36;;;;;;;;;4.25;3.50;;;;;;;;5136474;27;8808;-83
2021/10/02 11:54:07;;;;;;;;;3.00;3.00;;;;;;;;5138121;27;8833;-81
2021/10/02 11:56:34;;;;;;;;;2.25;2.25;;;;;;;;5137807;27;8757;-83
2021/10/02 11:58:59;;;;;;;;;3.25;3.00;;;;;;;;5136120;27;8787;-83
2021/10/02 12:01:26;;;;;;;;;2.33;1.67;;;;;;;;5138444;27;8867;-85
2021/10/02 12:04:05;;;;;;;;;3.25;2.50;;;;;;;;5132059;27;8764;-85
2021/10/02 12:06:32;;;;;;;;;2.75;2.75;;;;;;;;5131790;27;9752;-84
2021/10/02 12:08:58;;;;;;;;;3.00;3.00;;;;;;;;5124429;27;8919;-86
2021/10/02 12:11:24;;;;;;;;;4.67;2.00;;;;;;;;5122978;27;8996;-84
2021/10/02 12:13:51;;;;;;;;;3.00;3.00;;;;;;;;5130022;27;8932;-85
2021/10/02 12:16:18;;;;;;;;;2.50;2.50;;;;;;;;5132588;27;8880;-84
2021/10/02 12:18:52;;;;;;;;;3.00;3.00;;;;;;;;5123894;27;8834;-84
2021/10/02 12:21:23;;;;;;;;;5.00;5.00;;;;;;;;5119871;27;8813;-81
2021/10/02 12:23:58;;;;;;;;;3.75;3.75;;;;;;;;5127627;27;8833;-80
2021/10/02 12:26:24;;;;;;;;;4.00;4.00;;;;;;;;5118655;27;8800;-79
2021/10/02 12:28:55;;;;;;;;;4.00;4.00;;;;;;;;5128148;27;8843;-79
2021/10/02 12:31:20;;;;;;;;;2.75;2.75;;;;;;;;5120625;27;8791;-79
2021/10/02 12:33:45;;;;;;;;;3.33;3.33;;;;;;;;5120337;27;8803;-79
2021/10/02 12:36:10;;;;;;;;;7.00;4.00;;;;;;;;5118149;27;8889;-79
2021/10/02 12:38:40;;;;;;;;;4.00;4.00;;;;;;;;5124415;27;9590;-80
2021/10/02 12:41:05;;;;;;;;;2.00;2.00;;;;;;;;5118275;27;8779;-80
2021/10/02 12:43:33;;;;;;;;;3.33;3.00;;;;;;;;5118174;27;8857;-79
2021/10/02 12:45:59;;;;;;;;;3.50;3.50;;;;;;;;5115026;27;9730;-78
2021/10/02 12:48:24;;;;;;;;;4.33;3.67;;;;;;;;5117715;27;8953;-79
2021/10/02 12:50:49;;;;;;;;;3.33;3.33;;;;;;;;5118650;27;8807;-79
2021/10/02 12:53:20;;;;;;;;;3.67;3.67;;;;;;;;5117317;27;8796;-80
2021/10/02 12:55:46;;;;;;;;;4.25;4.00;;;;;;;;5115436;27;8800;-80
2021/10/02 12:58:15;;;;;;;;;4.33;4.33;;;;;;;;5117690;27;8859;-81
2021/10/02 13:00:40;;;;;;;;;4.00;3.75;;;;;;;;5117248;27;8783;-82
2021/10/02 13:03:06;;;;;;;;;4.00;4.00;;;;;;;;5118881;27;8817;-81
2021/10/02 13:05:36;;;;;;;;;4.00;4.00;;;;;;;;5117948;27;8843;-80
2021/10/02 13:08:06;;;;;;;;;5.25;5.25;;;;;;;;5117086;27;8799;-83
2021/10/02 13:10:31;;;;;;;;;3.75;3.75;;;;;;;;5132181;27;8792;-81
2021/10/02 13:12:56;;;;;;;;;5.67;5.67;;;;;;;;5121745;27;9562;-81
2021/10/02 13:15:33;;;;;;;;;5.00;5.00;;;;;;;;5127085;27;8812;-80
2021/10/02 13:18:00;;;;;;;;;5.00;5.00;;;;;;;;5124953;27;8831;-79
2021/10/02 13:20:26;;;;;;;;;4.00;3.75;;;;;;;;5118738;27;8957;-78
2021/10/02 13:22:52;;;;;;;;;5.00;4.75;;;;;;;;5127092;27;8806;-77
2021/10/02 13:25:24;;;;;;;;;4.00;4.00;;;;;;;;5119712;27;8891;-80
2021/10/02 13:27:54;;;;;;;;;4.75;4.25;;;;;;;;5119760;27;8752;-80
2021/10/02 13:30:25;;;;;;;;;7.00;5.00;;;;;;;;5132854;27;8839;-81
2021/10/02 13:32:55;;;;;;;;;3.75;3.00;;;;;;;;5126482;27;8804;-81
2021/10/02 13:35:21;;;;;;;;;6.00;6.00;;;;;;;;5134126;27;8808;-80
2021/10/02 13:37:46;;;;;;;;;3.67;3.67;;;;;;;;5127320;27;8857;-80
2021/10/02 13:40:31;;;;;;;;;5.33;5.33;;;;;;;;5119619;27;9839;-78
2021/10/02 13:42:58;;;;;;;;;5.50;5.50;;;;;;;;5119582;27;8872;-78
2021/10/02 13:45:27;;;;;;;;;3.75;3.75;;;;;;;;5114795;27;8849;-79
2021/10/02 13:47:57;;;;;;;;;3.25;3.25;;;;;;;;5131076;27;9371;-78
2021/10/02 13:50:22;;;;;;;;;5.50;5.50;;;;;;;;5122177;27;9716;-80
2021/10/02 13:52:47;;;;;;;;;3.00;3.00;;;;;;;;5129071;27;8866;-79
2021/10/02 13:55:12;;;;;;;;;4.00;4.00;;;;;;;;5122362;27;9546;-80
2021/10/02 13:57:37;;;;;;;;;7.00;7.00;;;;;;;;5123497;27;8850;-78
2021/10/02 14:00:03;;;;;;;;;4.00;4.00;;;;;;;;5126914;27;8846;-80
2021/10/02 14:02:28;;;;;;;;;7.00;6.67;;;;;;;;5120230;27;8868;-80
2021/10/02 14:04:54;;;;;;;;;5.33;5.33;;;;;;;;5125641;27;8857;-79
2021/10/02 14:07:19;;;;;;;;;5.00;5.00;;;;;;;;5125513;27;8953;-80
2021/10/02 14:09:44;;;;;;;;;5.33;5.33;;;;;;;;5129078;27;8799;-80
2021/10/02 14:12:13;;;;;;;;;4.00;3.67;;;;;;;;5132710;27;8812;-78
2021/10/02 14:14:40;;;;;;;;;6.00;5.00;;;;;;;;5132407;27;8961;-79
2021/10/02 14:17:06;;;;;;;;;4.00;4.00;;;;;;;;5134280;27;8745;-79
2021/10/02 14:19:31;;;;;;;;;5.00;5.00;;;;;;;;5122530;27;8871;-79
2021/10/02 14:21:56;;;;;;;;;5.67;5.67;;;;;;;;5128249;27;8796;-79
2021/10/02 14:24:21;;;;;;;;;7.00;6.67;;;;;;;;5129084;27;8843;-79
2021/10/02 14:26:47;;;;;;;;;5.00;4.00;;;;;;;;5124465;27;8865;-79
2021/10/02 14:29:13;;;;;;;;;5.00;4.67;;;;;;;;5123801;27;8816;-78
2021/10/02 14:31:38;;;;;;;;;5.00;5.00;;;;;;;;5123336;27;8870;-79
2021/10/02 14:34:05;;;;;;;;;5.00;5.00;;;;;;;;5126028;27;8819;-81
2021/10/02 14:36:30;;;;;;;;;3.50;3.50;;;;;;;;5127138;27;8887;-78
2021/10/02 14:38:55;;;;;;;;;4.00;4.00;;;;;;;;5129528;27;8848;-79
2021/10/02 14:41:21;;;;;;;;;4.33;4.33;;;;;;;;5121237;27;8824;-79
2021/10/02 14:43:46;;;;;;;;;6.67;5.67;;;;;;;;5127606;27;8836;-79
2021/10/02 14:46:12;;;;;;;;;4.67;4.67;;;;;;;;5129027;27;8851;-79
2021/10/02 14:48:37;;;;;;;;;4.33;4.33;;;;;;;;5121976;27;8803;-80
2021/10/02 14:51:03;;;;;;;;;10.33;9.00;;;;;;;;5123227;27;8807;-79
2021/10/02 14:53:29;;;;;;;;;3.67;3.67;;;;;;;;5126935;27;8839;-80
2021/10/02 14:55:54;;;;;;;;;6.00;6.00;;;;;;;;5118391;27;8814;-79
2021/10/02 14:58:20;;;;;;;;;5.67;5.00;;;;;;;;5120632;27;8831;-82
2021/10/02 15:00:46;;;;;;;;;4.00;4.00;;;;;;;;5117637;27;8845;-80
2021/10/02 15:03:11;;;;;;;;;4.25;4.25;;;;;;;;5124317;27;8740;-80
2021/10/02 15:05:37;;;;;;;;;5.00;5.00;;;;;;;;5119856;27;8890;-81
2021/10/02 15:08:02;;;;;;;;;4.00;3.00;;;;;;;;5120099;27;8819;-81
2021/10/02 15:10:29;;;;;;;;;6.33;6.00;;;;;;;;5119168;27;8853;-81
2021/10/02 15:12:57;;;;;;;;;5.75;4.50;;;;;;;;5118559;27;8795;-79
2021/10/02 15:15:23;;;;;;;;;7.00;7.00;;;;;;;;5134372;27;8839;-81
2021/10/02 15:17:51;;;;;;;;;5.00;5.00;;;;;;;;5138225;27;8808;-81
2021/10/02 15:20:17;;;;;;;;;4.75;4.75;;;;;;;;5135620;27;8792;-81
2021/10/02 15:22:46;;;;;;;;;5.00;5.00;;;;;;;;5129393;27;8913;-81
2021/10/02 15:25:12;;;;;;;;;5.00;5.00;;;;;;;;5135696;27;9744;-80
2021/10/02 15:27:42;;;;;;;;;5.00;5.00;;;;;;;;5129937;27;8798;-81
2021/10/02 15:30:08;;;;;;;;;4.25;4.25;;;;;;;;5129365;27;8874;-81
2021/10/02 15:32:33;;;;;;;;;7.33;6.67;;;;;;;;5129151;27;8829;-81
2021/10/02 15:35:00;;;;;;;;;4.67;4.67;;;;;;;;5131295;27;8815;-81
2021/10/02 15:37:25;;;;;;;;;5.50;5.00;;;;;;;;5127498;27;8804;-81
2021/10/02 15:39:51;;;;;;;;;5.33;5.33;;;;;;;;5124756;27;8845;-81
2021/10/02 15:42:16;;;;;;;;;5.67;5.67;;;;;;;;5115699;28;8881;-80
2021/10/02 15:44:42;;;;;;;;;6.00;5.67;;;;;;;;5115152;28;9593;-81